createdAt,value
2023-05-10T11:10:09.489Z,15.70
2023-05-10T11:13:03.540Z,15.50
2023-05-10T11:15:52.106Z,15.40
2023-05-10T11:19:15.390Z,15.50
2023-05-10T11:22:43.031Z,15.60
2023-05-10T11:30:01.270Z,16.10
2023-05-10T11:32:50.529Z,16.30
2023-05-10T11:35:43.689Z,16.70
2023-05-10T11:38:35.659Z,16.90
2023-05-10T11:41:25.737Z,17.00
2023-05-10T11:44:14.316Z,16.90
2023-05-10T11:47:04.591Z,16.80
2023-05-10T11:49:54.103Z,16.70
2023-05-10T11:52:42.674Z,16.60
2023-05-10T11:55:32.462Z,16.70
2023-05-10T11:58:22.379Z,16.90
2023-05-10T12:01:12.181Z,17.20
2023-05-10T12:04:03.664Z,17.50
2023-05-10T12:06:52.469Z,17.60
2023-05-10T12:09:46.036Z,17.60
2023-05-10T12:12:42.893Z,17.40
2023-05-10T12:15:31.547Z,17.10
2023-05-10T12:18:26.543Z,16.70
2023-05-10T12:21:17.739Z,16.30
2023-05-10T12:24:07.464Z,15.80
2023-05-10T12:26:56.007Z,15.40
2023-05-10T12:29:46.182Z,15.10
2023-05-10T12:32:41.889Z,14.80
2023-05-10T12:35:33.020Z,14.40
2023-05-10T12:38:32.034Z,14.20
2023-05-10T12:41:20.880Z,13.90
2023-05-10T12:44:12.386Z,13.70
2023-05-10T12:47:00.951Z,13.50
2023-05-10T12:49:49.493Z,13.60
2023-05-10T12:52:38.248Z,13.60
2023-05-10T12:55:28.280Z,13.70
2023-05-10T12:58:31.373Z,13.80
2023-05-10T13:01:23.515Z,14.00
2023-05-10T13:04:12.281Z,14.10
2023-05-10T13:07:00.932Z,14.30
2023-05-10T13:09:49.453Z,14.50
2023-05-10T13:12:39.592Z,14.80
2023-05-10T13:15:28.556Z,15.10
2023-05-10T13:18:17.481Z,15.40
2023-05-10T13:21:06.862Z,16.10
2023-05-10T13:23:55.873Z,16.80
2023-05-10T13:26:44.610Z,17.20
2023-05-10T13:29:34.613Z,17.10
2023-05-10T13:32:23.278Z,16.70
2023-05-10T13:35:11.877Z,16.30
2023-05-10T13:38:00.429Z,16.10
2023-05-10T13:40:49.168Z,15.90
2023-05-10T13:43:37.790Z,16.00
2023-05-10T13:46:27.738Z,16.20
2023-05-10T13:49:16.342Z,16.40
2023-05-10T13:52:07.988Z,16.50
2023-05-10T13:54:57.005Z,16.40
2023-05-10T13:57:45.612Z,16.30
2023-05-10T14:00:34.837Z,16.50
2023-05-10T14:03:24.926Z,16.70
2023-05-10T14:06:13.549Z,16.50
2023-05-10T14:09:02.140Z,16.40
2023-05-10T14:11:50.732Z,16.40
2023-05-10T14:14:39.308Z,16.50
2023-05-10T14:17:28.026Z,16.40
2023-05-10T14:20:18.110Z,16.40
2023-05-10T14:23:06.892Z,16.50
2023-05-10T14:25:55.632Z,16.50
2023-05-10T14:28:44.210Z,16.50
2023-05-10T14:31:32.952Z,16.70
2023-05-10T14:34:21.561Z,16.80
2023-05-10T14:37:13.346Z,16.80
2023-05-10T14:40:01.906Z,16.80
2023-05-10T14:42:50.505Z,16.70
2023-05-10T14:45:39.167Z,16.50
2023-05-10T14:48:27.768Z,16.40
2023-05-10T14:51:16.405Z,16.50
2023-05-10T14:54:06.467Z,16.60
2023-05-10T14:56:55.044Z,16.60
2023-05-10T14:59:43.612Z,16.90
2023-05-10T15:02:33.297Z,17.00
2023-05-10T15:05:22.456Z,17.10
2023-05-10T15:08:13.553Z,17.40
2023-05-10T15:11:04.201Z,17.70
2023-05-10T15:13:52.790Z,17.80
2023-05-10T15:16:41.343Z,17.80
2023-05-10T15:19:30.719Z,17.50
2023-05-10T15:22:19.311Z,17.50
2023-05-10T15:25:08.713Z,17.30
2023-05-10T15:27:58.738Z,17.10
2023-05-10T15:30:47.361Z,16.90
2023-05-10T15:33:35.977Z,16.80
2023-05-10T15:36:24.554Z,16.70
2023-05-10T15:39:13.770Z,16.70
2023-05-10T15:42:02.618Z,16.70
2023-05-10T15:44:52.519Z,16.60
2023-05-10T15:47:41.471Z,16.50
2023-05-10T15:50:30.108Z,16.40
2023-05-10T15:53:18.671Z,16.40
2023-05-10T15:56:08.291Z,16.20
2023-05-10T15:58:56.948Z,16.20
2023-05-10T16:01:46.997Z,16.20
2023-05-10T16:04:35.626Z,16.20
2023-05-10T16:07:24.246Z,16.30
2023-05-10T16:10:12.987Z,16.40
2023-05-10T16:13:02.443Z,16.30
2023-05-10T16:15:51.018Z,16.30
2023-05-10T16:18:41.207Z,16.20
2023-05-10T16:21:31.708Z,16.00
2023-05-10T16:24:20.402Z,15.80
2023-05-10T16:27:08.989Z,15.50
2023-05-10T16:29:57.584Z,15.40
2023-05-10T16:32:46.223Z,15.30
2023-05-10T16:35:36.241Z,15.30
2023-05-10T16:38:24.805Z,15.10
2023-05-10T16:41:13.328Z,15.10
2023-05-10T16:44:01.877Z,15.00
2023-05-10T16:46:50.451Z,14.80
2023-05-10T16:49:38.948Z,14.80
2023-05-10T16:52:28.970Z,14.80
2023-05-10T16:55:17.734Z,14.70
2023-05-10T16:58:06.518Z,14.60
2023-05-10T17:00:55.175Z,14.60
2023-05-10T17:03:44.149Z,14.60
2023-05-10T17:06:32.953Z,14.60
2023-05-10T17:09:22.888Z,14.50
2023-05-10T17:12:11.712Z,14.50
2023-05-10T17:17:48.916Z,14.40
2023-05-10T17:20:37.510Z,14.30
2023-05-10T17:23:26.068Z,14.30
2023-05-10T17:26:16.060Z,14.30
2023-05-10T17:29:05.157Z,14.30
2023-05-10T17:31:53.824Z,14.30
2023-05-10T17:34:42.520Z,14.30
2023-05-10T17:37:31.141Z,14.30
2023-05-10T17:40:20.065Z,14.20
2023-05-10T17:43:10.092Z,14.10
2023-05-10T17:45:58.708Z,14.10
2023-05-10T17:48:47.407Z,13.90
2023-05-10T17:51:35.938Z,13.90
2023-05-10T17:54:24.519Z,13.70
2023-05-10T17:57:13.210Z,13.70
2023-05-10T18:00:06.287Z,13.60
2023-05-10T18:02:55.040Z,13.60
2023-05-10T18:05:43.717Z,13.60
2023-05-10T18:08:33.151Z,13.50
2023-05-10T18:11:22.160Z,13.50
2023-05-10T18:14:10.693Z,13.50
2023-05-10T18:17:00.901Z,13.50
2023-05-10T18:19:49.520Z,13.40
2023-05-10T18:22:38.114Z,13.30
2023-05-10T18:25:26.843Z,13.20
2023-05-10T18:28:15.429Z,13.00
2023-05-10T18:31:04.139Z,12.80
2023-05-10T18:33:54.126Z,12.80
2023-05-10T18:36:43.946Z,12.80
2023-05-10T18:39:32.490Z,12.70
2023-05-10T18:42:21.668Z,12.60
2023-05-10T18:45:10.816Z,12.50
2023-05-10T18:47:59.416Z,12.50
2023-05-10T18:50:50.108Z,12.50
2023-05-10T18:53:38.917Z,12.40
2023-05-10T18:56:27.527Z,12.30
2023-05-10T18:59:16.691Z,12.30
2023-05-10T19:02:06.424Z,12.30
2023-05-10T19:04:55.104Z,12.20
2023-05-10T19:07:45.056Z,12.00
2023-05-10T19:10:52.700Z,11.80
2023-05-10T19:13:41.638Z,11.70
2023-05-10T19:16:30.953Z,11.60
2023-05-10T19:19:20.180Z,11.60
2023-05-10T19:22:08.800Z,11.50
2023-05-10T19:24:58.884Z,11.40
2023-05-10T19:27:47.558Z,11.40
2023-05-10T19:30:36.566Z,11.40
2023-05-10T19:33:25.447Z,11.40
2023-05-10T19:36:14.073Z,11.30
2023-05-10T19:39:02.637Z,11.30
2023-05-10T19:41:52.691Z,11.20
2023-05-10T19:44:41.268Z,11.20
2023-05-10T19:47:29.878Z,11.20
2023-05-10T19:50:19.368Z,11.30
2023-05-10T19:53:07.983Z,11.30
2023-05-10T19:55:57.077Z,11.20
2023-05-10T19:58:47.036Z,11.20
2023-05-10T20:01:35.811Z,11.20
2023-05-10T20:04:24.368Z,11.20
2023-05-10T20:07:12.949Z,11.20
2023-05-10T20:10:01.616Z,11.10
2023-05-10T20:12:52.500Z,11.10
2023-05-10T20:15:42.895Z,11.10
2023-05-10T20:18:38.574Z,11.10
2023-05-10T20:21:27.561Z,11.00
2023-05-10T20:24:16.134Z,11.10
2023-05-10T20:27:04.878Z,11.00
2023-05-10T20:29:54.048Z,11.10
2023-05-10T20:32:44.407Z,11.00
2023-05-10T20:35:34.349Z,11.00
2023-05-10T20:38:22.980Z,11.00
2023-05-10T20:41:11.522Z,10.90
2023-05-10T20:44:00.570Z,10.90
2023-05-10T20:46:49.286Z,10.80
2023-05-10T20:49:39.259Z,10.80
2023-05-10T20:52:28.185Z,10.80
2023-05-10T20:55:16.886Z,10.80
2023-05-10T20:58:05.536Z,10.80
2023-05-10T21:00:54.116Z,10.80
2023-05-10T21:03:42.700Z,10.70
2023-05-10T21:06:32.960Z,10.70
2023-05-10T21:09:21.550Z,10.70
2023-05-10T21:12:10.964Z,10.80
2023-05-10T21:14:59.510Z,10.80
2023-05-10T21:17:48.122Z,10.80
2023-05-10T21:20:36.743Z,10.80
2023-05-10T21:23:26.717Z,10.80
2023-05-10T21:26:15.296Z,10.90
2023-05-10T21:29:04.913Z,10.90
2023-05-10T21:31:53.678Z,11.00
2023-05-10T21:34:42.808Z,10.90
2023-05-10T21:37:31.499Z,11.00
2023-05-10T21:40:21.759Z,11.00
